createdAt,value
2023-01-29T00:01:10.136Z,68.44
2023-01-29T00:03:39.046Z,69.53
2023-01-29T00:06:05.517Z,69.92
2023-01-29T00:08:32.146Z,69.70
2023-01-29T00:10:58.892Z,69.65
2023-01-29T00:13:25.292Z,69.58
2023-01-29T00:15:51.780Z,69.28
2023-01-29T00:18:18.158Z,68.76
2023-01-29T00:20:45.885Z,68.79
2023-01-29T00:23:12.260Z,69.15
2023-01-29T00:25:38.645Z,68.83
2023-01-29T00:28:05.018Z,68.72
2023-01-29T00:30:31.397Z,68.78
2023-01-29T00:32:57.735Z,68.36
2023-01-29T00:35:24.120Z,69.05
2023-01-29T00:37:50.757Z,69.00
2023-01-29T00:40:17.477Z,69.08
2023-01-29T00:42:44.009Z,68.63
2023-01-29T00:45:10.369Z,68.79
2023-01-29T00:47:39.834Z,69.35
2023-01-29T00:50:08.662Z,69.14
2023-01-29T00:52:35.154Z,69.18
2023-01-29T00:55:01.509Z,70.02
2023-01-29T00:57:27.998Z,70.35
2023-01-29T00:59:57.456Z,70.15
2023-01-29T01:02:23.972Z,69.69
2023-01-29T01:04:50.404Z,69.88
2023-01-29T01:07:16.887Z,69.63
2023-01-29T01:09:43.499Z,69.50
2023-01-29T01:12:09.853Z,70.23
2023-01-29T01:14:37.600Z,70.62
2023-01-29T01:17:04.063Z,70.42
2023-01-29T01:19:30.422Z,69.91
2023-01-29T01:21:56.775Z,70.30
2023-01-29T01:24:23.169Z,70.46
2023-01-29T01:26:49.579Z,70.59
2023-01-29T01:29:15.977Z,71.38
2023-01-29T01:31:42.368Z,71.92
2023-01-29T01:34:12.898Z,71.33
2023-01-29T01:36:39.269Z,71.34
2023-01-29T01:39:05.607Z,71.42
2023-01-29T01:41:31.957Z,71.31
2023-01-29T01:43:58.380Z,70.95
2023-01-29T01:46:24.758Z,70.64
2023-01-29T01:48:51.097Z,71.04
2023-01-29T01:51:17.483Z,71.89
2023-01-29T01:53:44.263Z,71.51
2023-01-29T01:56:10.872Z,71.27
2023-01-29T01:58:37.607Z,71.14
2023-01-29T02:01:11.155Z,71.10
2023-01-29T02:03:37.525Z,71.02
2023-01-29T02:06:06.173Z,70.58
2023-01-29T02:08:32.639Z,70.67
2023-01-29T02:10:59.111Z,70.79
2023-01-29T02:13:25.482Z,71.08
2023-01-29T02:15:51.862Z,71.08
2023-01-29T02:18:18.282Z,71.52
2023-01-29T02:20:45.653Z,71.63
2023-01-29T02:23:12.035Z,71.61
2023-01-29T02:25:38.398Z,71.36
2023-01-29T02:28:04.829Z,71.06
2023-01-29T02:30:31.177Z,71.84
2023-01-29T02:32:57.899Z,71.60
2023-01-29T02:35:24.294Z,71.24
2023-01-29T02:37:50.789Z,71.26
2023-01-29T02:40:17.491Z,71.69
2023-01-29T02:42:44.096Z,71.90
2023-01-29T02:45:10.486Z,71.54
2023-01-29T02:47:37.084Z,71.34
2023-01-29T02:50:03.826Z,70.68
2023-01-29T02:52:30.443Z,70.49
2023-01-29T02:54:58.977Z,69.77
2023-01-29T02:57:28.063Z,70.19
2023-01-29T02:59:54.505Z,70.17
2023-01-29T03:02:20.954Z,70.34
2023-01-29T03:04:47.420Z,70.43
2023-01-29T03:07:13.896Z,70.67
2023-01-29T03:09:40.372Z,70.61
2023-01-29T03:12:07.204Z,70.24
2023-01-29T03:14:33.562Z,69.57
2023-01-29T03:16:59.968Z,70.14
2023-01-29T03:19:26.322Z,70.07
2023-01-29T03:21:53.289Z,69.95
2023-01-29T03:24:20.777Z,69.74
2023-01-29T03:26:47.568Z,69.00
2023-01-29T03:29:14.946Z,69.21
2023-01-29T03:31:43.919Z,69.15
2023-01-29T03:34:10.348Z,69.08
2023-01-29T03:36:37.851Z,69.09
2023-01-29T03:39:07.235Z,68.64
2023-01-29T03:41:33.629Z,68.55
2023-01-29T03:44:00.450Z,68.08
2023-01-29T03:46:26.834Z,67.61
2023-01-29T03:48:53.282Z,67.62
2023-01-29T03:51:20.219Z,67.66
2023-01-29T03:53:46.700Z,67.57
2023-01-29T03:56:13.082Z,67.20
2023-01-29T03:58:39.479Z,67.20
2023-01-29T04:01:07.106Z,67.26
2023-01-29T04:03:33.977Z,66.84
2023-01-29T04:06:00.356Z,66.97
2023-01-29T04:08:26.974Z,66.89
2023-01-29T04:10:53.479Z,67.05
2023-01-29T04:13:19.993Z,67.04
2023-01-29T04:15:46.380Z,67.04
2023-01-29T04:18:13.866Z,66.44
2023-01-29T04:20:42.317Z,66.55
2023-01-29T04:23:08.886Z,66.97
2023-01-29T04:25:35.259Z,66.24
2023-01-29T04:28:01.751Z,66.74
2023-01-29T04:30:28.546Z,66.39
2023-01-29T04:32:54.922Z,67.02
2023-01-29T04:35:21.295Z,66.46
2023-01-29T04:37:47.807Z,67.21
2023-01-29T04:40:14.424Z,67.06
2023-01-29T04:42:40.987Z,67.40
2023-01-29T04:45:07.382Z,67.30
2023-01-29T04:47:41.747Z,66.78
2023-01-29T04:50:08.132Z,67.29
2023-01-29T04:52:34.585Z,67.24
2023-01-29T04:55:00.948Z,66.90
2023-01-29T04:57:27.721Z,66.69
2023-01-29T04:59:54.228Z,66.46
2023-01-29T05:02:20.578Z,66.63
2023-01-29T05:04:46.937Z,66.67
2023-01-29T05:07:13.334Z,66.71
2023-01-29T05:09:39.717Z,66.63
2023-01-29T05:12:06.148Z,66.75
2023-01-29T05:14:32.511Z,67.02
2023-01-29T05:16:58.866Z,67.59
2023-01-29T05:19:25.571Z,68.07
2023-01-29T05:21:51.931Z,68.31
2023-01-29T05:24:18.352Z,67.69
2023-01-29T05:26:44.740Z,67.90
2023-01-29T05:29:11.084Z,67.50
2023-01-29T05:31:40.157Z,67.37
2023-01-29T05:34:06.522Z,67.23
2023-01-29T05:36:33.303Z,67.68
2023-01-29T05:38:59.674Z,67.52
2023-01-29T05:41:26.461Z,67.72
2023-01-29T05:43:52.813Z,67.75
2023-01-29T05:46:19.205Z,67.38
2023-01-29T05:48:46.116Z,67.38
2023-01-29T05:51:12.558Z,66.68
2023-01-29T05:53:38.927Z,67.53
2023-01-29T05:56:06.519Z,68.12
2023-01-29T05:58:32.862Z,67.72
2023-01-29T06:01:02.314Z,67.58
2023-01-29T06:03:28.666Z,67.47
2023-01-29T06:05:56.864Z,66.99
2023-01-29T06:08:23.248Z,66.80
2023-01-29T06:10:49.598Z,66.91
2023-01-29T06:13:15.941Z,66.39
2023-01-29T06:15:42.325Z,66.47
2023-01-29T06:18:08.704Z,66.59
2023-01-29T06:20:35.082Z,66.79
2023-01-29T06:23:01.450Z,66.60
2023-01-29T06:25:27.827Z,66.75
2023-01-29T06:27:54.305Z,66.55
2023-01-29T06:30:20.702Z,66.39
2023-01-29T06:32:47.069Z,66.29
2023-01-29T06:35:13.760Z,66.15
2023-01-29T06:37:40.736Z,66.51
2023-01-29T06:40:08.122Z,66.22
2023-01-29T06:42:34.720Z,65.94
2023-01-29T06:45:01.085Z,65.76
2023-01-29T06:47:27.432Z,66.45
2023-01-29T06:49:54.888Z,66.13
2023-01-29T06:52:21.318Z,65.24
2023-01-29T06:54:47.666Z,65.46
2023-01-29T06:57:14.033Z,64.97
2023-01-29T06:59:40.575Z,64.89
2023-01-29T07:02:07.073Z,65.74
2023-01-29T07:04:33.458Z,66.02
2023-01-29T07:06:59.871Z,66.05
2023-01-29T07:09:27.319Z,65.43
2023-01-29T07:11:53.892Z,66.11
2023-01-29T07:14:22.289Z,65.16
2023-01-29T07:16:49.292Z,65.74
2023-01-29T07:19:15.630Z,65.67
2023-01-29T07:21:42.112Z,65.35
2023-01-29T07:24:08.531Z,65.54
2023-01-29T07:26:35.855Z,65.68
2023-01-29T07:29:02.239Z,65.72
2023-01-29T07:31:28.901Z,65.19
2023-01-29T07:33:55.340Z,64.99
2023-01-29T07:36:21.731Z,64.90
2023-01-29T07:38:48.304Z,65.33
2023-01-29T07:41:14.856Z,64.76
2023-01-29T07:43:41.260Z,64.79
2023-01-29T07:46:07.885Z,64.54
2023-01-29T07:48:36.458Z,64.00
2023-01-29T07:51:02.859Z,64.47
2023-01-29T07:53:29.422Z,65.20
2023-01-29T07:55:56.810Z,65.35
2023-01-29T07:58:23.210Z,64.52
2023-01-29T08:00:49.575Z,64.17
2023-01-29T08:03:15.961Z,64.15
2023-01-29T08:05:44.352Z,64.18
2023-01-29T08:08:10.861Z,63.48
2023-01-29T08:10:39.742Z,63.58
2023-01-29T08:13:06.161Z,63.34
2023-01-29T08:15:32.522Z,63.32
2023-01-29T08:17:58.961Z,64.12
2023-01-29T08:20:25.391Z,64.17
2023-01-29T08:22:51.788Z,63.32
2023-01-29T08:25:18.139Z,64.47
2023-01-29T08:27:44.772Z,64.78
2023-01-29T08:30:11.130Z,64.55
2023-01-29T08:32:37.614Z,62.95
2023-01-29T08:35:03.980Z,62.91
2023-01-29T08:37:31.352Z,63.47
2023-01-29T08:39:57.850Z,63.67
2023-01-29T08:42:24.318Z,62.57
2023-01-29T08:44:50.753Z,61.98
2023-01-29T08:47:17.122Z,62.43
2023-01-29T08:49:44.482Z,61.91
2023-01-29T08:52:10.889Z,61.54
2023-01-29T08:54:37.318Z,61.24
2023-01-29T08:57:03.827Z,61.73
2023-01-29T08:59:30.231Z,62.11
2023-01-29T09:01:56.626Z,62.14
2023-01-29T09:04:23.332Z,62.15
2023-01-29T09:06:51.981Z,61.46
2023-01-29T09:09:20.693Z,61.70
2023-01-29T09:11:47.251Z,60.14
2023-01-29T09:14:13.682Z,60.96
2023-01-29T09:16:40.043Z,60.92
2023-01-29T09:19:06.417Z,60.93
2023-01-29T09:21:32.761Z,61.15
2023-01-29T09:23:59.159Z,61.70
2023-01-29T09:26:26.177Z,61.77
2023-01-29T09:28:52.581Z,61.64
2023-01-29T09:31:19.127Z,61.51
2023-01-29T09:33:45.506Z,60.68
2023-01-29T09:36:13.934Z,61.03
2023-01-29T09:38:40.352Z,60.60
2023-01-29T09:41:06.722Z,61.12
2023-01-29T09:43:33.132Z,62.28
2023-01-29T09:45:59.589Z,61.08
2023-01-29T09:48:26.239Z,60.17
2023-01-29T09:50:52.713Z,60.84
2023-01-29T09:53:20.130Z,60.63
2023-01-29T09:55:47.166Z,60.02
2023-01-29T09:58:13.558Z,59.75
2023-01-29T10:00:40.038Z,60.79
2023-01-29T10:05:33.844Z,60.72
2023-01-29T10:08:00.218Z,61.02
2023-01-29T10:10:26.633Z,61.18
2023-01-29T10:12:53.009Z,60.47
2023-01-29T10:15:19.585Z,60.26
2023-01-29T10:17:46.003Z,60.69
2023-01-29T10:20:12.366Z,58.82
2023-01-29T10:22:38.748Z,59.08
2023-01-29T10:25:05.136Z,58.81
2023-01-29T10:27:32.048Z,59.14
2023-01-29T10:29:58.483Z,58.58
2023-01-29T10:32:24.866Z,57.77
2023-01-29T10:34:53.283Z,57.37
2023-01-29T10:37:19.690Z,57.95
2023-01-29T10:39:48.396Z,58.23
2023-01-29T10:42:14.776Z,58.97
2023-01-29T10:44:41.121Z,59.41
2023-01-29T10:47:07.760Z,59.58
2023-01-29T10:49:34.187Z,59.50
2023-01-29T10:52:00.687Z,59.38
2023-01-29T10:54:29.103Z,58.73
2023-01-29T10:56:55.574Z,57.09
2023-01-29T10:59:24.911Z,57.57
2023-01-29T11:01:51.626Z,57.57
2023-01-29T11:04:18.266Z,57.41
2023-01-29T11:06:44.656Z,57.17
2023-01-29T11:09:11.035Z,57.30
2023-01-29T11:11:37.625Z,56.85
2023-01-29T11:14:04.039Z,56.61
2023-01-29T11:16:30.389Z,56.61
2023-01-29T11:18:56.885Z,56.85
2023-01-29T11:21:23.481Z,56.76
2023-01-29T11:23:51.932Z,56.79
2023-01-29T11:26:18.331Z,54.88
2023-01-29T11:28:44.713Z,55.94
2023-01-29T11:31:11.199Z,56.26
2023-01-29T11:33:37.606Z,57.63
2023-01-29T11:36:06.294Z,57.67
2023-01-29T11:38:32.655Z,57.33
2023-01-29T11:40:58.991Z,56.98
2023-01-29T11:43:25.672Z,54.93
2023-01-29T11:45:52.140Z,56.19
2023-01-29T11:48:18.496Z,54.69
2023-01-29T11:50:44.879Z,55.84
2023-01-29T11:53:11.341Z,55.86
2023-01-29T11:55:49.703Z,56.35
2023-01-29T11:58:16.879Z,56.87
2023-01-29T12:00:43.388Z,56.46
2023-01-29T12:03:09.738Z,55.80
2023-01-29T12:05:36.152Z,55.20
2023-01-29T12:08:02.523Z,54.76
2023-01-29T12:10:30.120Z,54.89
2023-01-29T12:12:57.657Z,54.49
2023-01-29T12:15:24.023Z,53.67
2023-01-29T12:17:50.411Z,53.97
2023-01-29T12:20:16.964Z,53.29
2023-01-29T12:22:43.523Z,53.10
2023-01-29T12:25:09.887Z,51.83
2023-01-29T12:27:36.248Z,53.57
2023-01-29T12:30:02.645Z,52.51
2023-01-29T12:32:29.047Z,52.03
2023-01-29T12:34:55.456Z,51.55
2023-01-29T12:37:22.151Z,52.63
2023-01-29T12:39:48.539Z,53.02
2023-01-29T12:42:15.695Z,54.31
2023-01-29T12:44:42.143Z,54.27
2023-01-29T12:47:08.541Z,53.20
2023-01-29T12:49:35.293Z,51.61
2023-01-29T12:52:01.655Z,52.41
2023-01-29T16:57:58.026Z,60.91
2023-01-29T17:00:27.282Z,61.25
2023-01-29T17:02:53.809Z,61.19
2023-01-29T17:05:22.472Z,61.11
2023-01-29T17:07:49.107Z,60.42
2023-01-29T17:15:57.160Z,61.53
2023-01-29T17:18:27.189Z,61.24
2023-01-29T17:20:53.687Z,61.06
2023-01-29T17:23:33.550Z,62.55
2023-01-29T17:26:00.280Z,63.47
2023-01-29T17:28:29.427Z,63.43
2023-01-29T17:31:10.832Z,64.01
2023-01-29T18:36:15.979Z,64.74
2023-01-29T18:38:46.533Z,64.66
2023-01-29T18:41:13.247Z,64.94
2023-01-29T18:46:38.176Z,65.47
2023-01-29T18:49:15.868Z,66.05
2023-01-29T18:51:43.255Z,66.15
2023-01-29T18:54:18.349Z,65.93
2023-01-29T18:57:13.360Z,66.34
2023-01-29T18:59:33.124Z,66.33
2023-01-29T19:01:59.582Z,67.10
2023-01-29T19:04:26.043Z,67.00
2023-01-29T19:06:52.433Z,67.09
2023-01-29T19:09:18.958Z,67.62
2023-01-29T19:11:45.354Z,68.00
2023-01-29T19:14:11.714Z,68.09
2023-01-29T19:16:39.094Z,67.99
2023-01-29T19:19:05.504Z,68.38
2023-01-29T19:21:32.349Z,68.32
2023-01-29T19:23:58.728Z,68.52
2023-01-29T19:26:25.187Z,68.43
2023-01-29T19:28:52.016Z,68.77
2023-01-29T19:31:18.891Z,69.18
2023-01-29T19:33:45.292Z,69.80
2023-01-29T19:36:12.021Z,70.10
2023-01-29T19:38:38.758Z,69.40
2023-01-29T19:41:05.778Z,69.97
2023-01-29T19:43:39.560Z,69.63
2023-01-29T19:46:05.940Z,69.55
2023-01-29T19:48:32.412Z,69.53
2023-01-29T19:50:58.852Z,69.31
2023-01-29T19:53:25.809Z,69.08
2023-01-29T19:55:52.269Z,68.69
2023-01-29T19:58:18.795Z,68.89
2023-01-29T20:00:47.814Z,68.99
2023-01-29T20:03:14.552Z,68.52
2023-01-29T20:05:40.926Z,68.70
2023-01-29T20:08:08.341Z,68.86
2023-01-29T20:10:35.278Z,68.76
2023-01-29T20:13:02.730Z,68.90
2023-01-29T20:15:29.423Z,69.20
2023-01-29T20:17:55.936Z,69.05
2023-01-29T20:20:23.371Z,68.93
2023-01-29T20:22:55.039Z,68.87
2023-01-29T20:25:23.735Z,68.80
2023-01-29T20:27:50.231Z,68.83
2023-01-29T20:30:17.155Z,68.75
2023-01-29T20:32:43.751Z,68.60
2023-01-29T20:35:11.221Z,68.71
2023-01-29T20:37:37.630Z,68.68
2023-01-29T20:40:04.245Z,68.61
2023-01-29T20:42:30.902Z,68.93
2023-01-29T20:44:57.239Z,69.34
2023-01-29T20:47:23.707Z,69.45
2023-01-29T20:49:50.294Z,69.46
2023-01-29T20:52:16.643Z,70.17
2023-01-29T20:54:43.428Z,70.36
2023-01-29T20:57:10.038Z,69.87
2023-01-29T20:59:36.436Z,69.77
2023-01-29T21:02:03.236Z,70.52
2023-01-29T21:04:29.704Z,70.56
2023-01-29T21:06:57.115Z,70.62
2023-01-29T21:09:25.575Z,70.91
2023-01-29T21:11:51.967Z,71.37
2023-01-29T21:14:18.519Z,70.91
2023-01-29T21:16:45.075Z,71.03
2023-01-29T21:19:11.916Z,71.02
2023-01-29T21:21:38.372Z,70.78
2023-01-29T21:24:04.736Z,71.06
2023-01-29T21:26:31.583Z,70.75
2023-01-29T21:29:00.056Z,70.56
2023-01-29T21:31:26.502Z,70.43
2023-01-29T21:33:52.872Z,70.07
2023-01-29T21:36:19.274Z,70.52
2023-01-29T21:38:48.093Z,70.37
2023-01-29T21:41:15.565Z,70.46
2023-01-29T21:43:41.923Z,70.75
2023-01-29T21:46:09.419Z,71.18
2023-01-29T21:48:35.885Z,71.27
2023-01-29T21:51:02.290Z,71.81
2023-01-29T21:53:28.718Z,71.82
2023-01-29T21:55:55.267Z,71.78
2023-01-29T21:58:22.209Z,71.66
2023-01-29T22:00:48.762Z,71.59
2023-01-29T22:03:15.282Z,71.59
2023-01-29T22:05:41.686Z,71.63
2023-01-29T22:08:08.040Z,71.64
2023-01-29T22:10:34.659Z,71.33
2023-01-29T22:13:01.172Z,71.49
2023-01-29T22:15:27.669Z,71.43
2023-01-29T22:17:54.023Z,71.54
2023-01-29T22:20:20.626Z,71.48
2023-01-29T22:22:47.115Z,71.76
2023-01-29T22:25:13.514Z,71.83
2023-01-29T22:27:39.978Z,71.86
2023-01-29T22:30:06.376Z,71.73
2023-01-29T22:32:33.327Z,72.22
2023-01-29T22:34:59.814Z,72.56
2023-01-29T22:37:26.333Z,72.55
2023-01-29T22:39:52.725Z,72.33
2023-01-29T22:42:19.297Z,72.31
2023-01-29T22:44:45.738Z,71.92
2023-01-29T22:47:12.183Z,71.91
2023-01-29T22:49:38.600Z,71.40
2023-01-29T22:52:05.179Z,71.47
2023-01-29T22:54:31.657Z,71.54
2023-01-29T22:56:58.081Z,71.61
2023-01-29T22:59:25.126Z,72.25
2023-01-29T23:01:51.761Z,71.73
2023-01-29T23:04:18.184Z,71.36
2023-01-29T23:06:44.704Z,72.05
2023-01-29T23:09:11.284Z,72.42
2023-01-29T23:11:37.794Z,72.27
2023-01-29T23:14:04.225Z,72.55
2023-01-29T23:16:30.960Z,72.79
2023-01-29T23:18:57.560Z,72.88
2023-01-29T23:21:24.992Z,72.65
2023-01-29T23:23:51.420Z,72.30
2023-01-29T23:26:18.200Z,72.54
2023-01-29T23:28:44.685Z,72.26
2023-01-29T23:31:11.140Z,72.32
2023-01-29T23:33:37.514Z,72.43
2023-01-29T23:36:03.899Z,72.53
2023-01-29T23:38:30.290Z,72.50
2023-01-29T23:40:56.665Z,72.50
2023-01-29T23:43:24.065Z,72.47
2023-01-29T23:45:51.597Z,72.61
2023-01-29T23:48:18.036Z,73.20
2023-01-29T23:50:44.436Z,73.17
2023-01-29T23:53:10.843Z,72.59
2023-01-29T23:55:37.463Z,72.54
2023-01-29T23:58:03.844Z,73.05
